Time;durP1;ratioP1;P1;durP2;ratioP2;P2;SDS_P1;SDS_P2;PMS_P1;PMS_P2;Temp;Humidity;BMP_temperature;BMP_pressure;BME280_temperature;BME280_humidity;BME280_pressure;Samples;Min_cycle;Max_cycle;Signal;HPM_P1;HPM_P2
2022/12/29 00:00:07;;;;;;;;;;;;;;;7.84;47.48;100175.72;4359147;32;34124;-69
2022/12/29 00:02:38;;;;;;;;;;;;;;;8.30;46.51;100177.53;4354509;32;33161;-68
2022/12/29 00:05:06;;;;;;;;;;;;;;;8.52;45.92;100183.37;4352971;32;35661;-70
2022/12/29 00:07:34;;;;;;;;;;;;;;;8.46;45.84;100183.72;4352313;32;33999;-70
2022/12/29 00:10:01;;;;;;;;;;;;;;;8.63;45.13;100193.37;4358283;32;34236;-70
2022/12/29 00:15:36;;;;;;;;;;;;;;;8.46;45.66;100188.22;4356581;32;33291;-67
2022/12/29 00:18:02;;;;;;;;;;;;;;;8.00;46.73;100170.38;4358821;32;34528;-72
2022/12/29 00:44:04;;;;;;;;;;;;;;;8.31;45.58;100176.59;4359419;32;34087;-71
2022/12/29 00:45:41;;;;;;;;;;;;;;;7.31;47.71;100162.72;4355046;32;33315;-70
2022/12/29 00:48:08;;;;;;;;;;;;;;;6.84;49.41;100167.00;4355045;32;31925;-71
2022/12/29 00:50:36;;;;;;;;;;;;;;;7.00;48.96;100173.22;4355821;32;35568;-71
2022/12/29 00:53:03;;;;;;;;;;;;;;;6.27;50.95;100174.38;4359540;32;33179;-70
2022/12/29 00:55:30;;;;;;;;;;;;;;;6.60;49.91;100179.75;4356939;32;33099;-70
2022/12/29 00:57:58;;;;;;;;;;;;;;;6.57;50.09;100173.75;4360017;32;32987;-69
2022/12/29 01:00:25;;;;;;;;;;;;;;;6.00;51.73;100179.22;4360598;32;34031;-71
2022/12/29 01:02:53;;;;;;;;;;;;;;;5.55;52.25;100177.81;4346232;32;34005;-66
2022/12/29 01:05:21;;;;;;;;;;;;;;;6.59;50.26;100174.53;4360684;32;34842;-67
2022/12/29 01:07:48;;;;;;;;;;;;;;;6.23;51.05;100168.34;4361322;32;33662;-69
2022/12/29 01:10:15;;;;;;;;;;;;;;;5.19;53.61;100172.44;4361372;32;34888;-70
2022/12/29 01:12:44;;;;;;;;;;;;;;;5.38;54.02;100176.81;4361261;32;35209;-67
2022/12/29 01:15:14;;;;;;;;;;;;;;;4.79;55.36;100172.44;4359079;32;33493;-69
2022/12/29 01:17:41;;;;;;;;;;;;;;;5.08;55.31;100181.75;4359751;32;33661;-68
2022/12/29 01:20:09;;;;;;;;;;;;;;;5.88;52.60;100183.34;4361090;32;34502;-68
2022/12/29 01:22:36;;;;;;;;;;;;;;;6.27;51.28;100174.38;4361117;32;33716;-69
2022/12/29 01:25:04;;;;;;;;;;;;;;;6.27;50.74;100171.72;4344945;32;33247;-69
2022/12/29 01:27:31;;;;;;;;;;;;;;;6.89;49.57;100164.94;4360121;32;33686;-73
2022/12/29 01:29:59;;;;;;;;;;;;;;;7.00;49.21;100164.38;4359328;32;35349;-73
2022/12/29 01:32:26;;;;;;;;;;;;;;;6.94;49.14;100165.56;4352044;32;32889;-73
2022/12/29 01:34:53;;;;;;;;;;;;;;;7.23;48.46;100174.66;4349649;32;33287;-72
2022/12/29 01:37:21;;;;;;;;;;;;;;;7.72;47.14;100178.22;4345435;32;34398;-72
2022/12/29 01:39:48;;;;;;;;;;;;;;;7.98;46.11;100172.25;4333650;33;34973;-70
2022/12/29 01:42:16;;;;;;;;;;;;;;;7.89;46.40;100162.97;4323807;33;34053;-70
2022/12/29 01:44:57;;;;;;;;;;;;;;;7.74;47.13;100171.88;4326990;33;32241;-71
2022/12/29 01:47:57;;;;;;;;;;;;;;;7.22;48.18;100167.62;4321952;33;35141;-71
2022/12/29 01:50:29;;;;;;;;;;;;;;;7.98;46.20;100169.59;4304578;33;37478;-71
2022/12/29 01:52:57;;;;;;;;;;;;;;;8.01;46.02;100160.56;4345569;32;35298;-69
2022/12/29 01:55:25;;;;;;;;;;;;;;;8.18;45.18;100155.09;4318098;33;33748;-71
2022/12/29 01:57:53;;;;;;;;;;;;;;;8.33;44.72;100150.69;4343022;32;33911;-72
2022/12/29 02:00:20;;;;;;;;;;;;;;;8.12;44.39;100143.03;4341219;32;33851;-70
2022/12/29 02:02:49;;;;;;;;;;;;;;;8.37;43.74;100150.41;4322599;33;33129;-68
2022/12/29 02:05:33;;;;;;;;;;;;;;;8.28;43.57;100158.97;4344356;32;32471;-70
2022/12/29 02:08:00;;;;;;;;;;;;;;;8.29;43.49;100146.50;4319705;33;32795;-67
2022/12/29 02:10:28;;;;;;;;;;;;;;;8.33;43.29;100143.53;4322893;33;34549;-71
2022/12/29 02:12:56;;;;;;;;;;;;;;;8.29;43.01;100139.34;4339819;32;35110;-67
2022/12/29 02:15:27;;;;;;;;;;;;;;;8.10;43.28;100131.56;4320333;33;35013;-67
2022/12/29 02:18:08;;;;;;;;;;;;;;;8.10;43.79;100134.25;4318997;33;34323;-68
2022/12/29 02:20:35;;;;;;;;;;;;;;;8.15;43.57;100124.19;4308662;33;34180;-69
2022/12/29 02:23:03;;;;;;;;;;;;;;;8.09;44.08;100124.53;4320040;33;35279;-68
2022/12/29 02:25:50;;;;;;;;;;;;;;;7.82;44.97;100126.13;4347218;32;32073;-68
2022/12/29 02:28:50;;;;;;;;;;;;;;;7.63;46.14;100127.16;4287137;33;33786;-68
2022/12/29 02:31:20;;;;;;;;;;;;;;;8.05;44.90;100116.78;4321347;33;31722;-67
2022/12/29 02:33:48;;;;;;;;;;;;;;;7.55;46.13;100118.75;4333198;33;34220;-68
2022/12/29 02:36:25;;;;;;;;;;;;;;;7.19;47.40;100114.53;4326973;33;33531;-66
2022/12/29 02:39:01;;;;;;;;;;;;;;;7.58;46.09;100107.06;4329447;33;33589;-65
2022/12/29 02:41:31;;;;;;;;;;;;;;;6.82;48.33;100113.00;4333121;33;34232;-67
2022/12/29 02:43:58;;;;;;;;;;;;;;;5.88;51.54;100100.12;4327195;33;32957;-69
2022/12/29 02:46:36;;;;;;;;;;;;;;;6.57;49.62;100109.91;4327137;33;33495;-70
2022/12/29 02:49:03;;;;;;;;;;;;;;;6.66;48.99;100104.97;4324687;33;33503;-69
2022/12/29 02:51:33;;;;;;;;;;;;;;;6.45;49.85;100106.09;4324338;33;32632;-67
2022/12/29 02:56:47;;;;;;;;;;;;;;;6.91;48.47;100103.66;4330045;33;33019;-67
2022/12/29 02:59:16;;;;;;;;;;;;;;;6.78;48.41;100099.94;4331673;33;34385;-67
2022/12/29 03:02:16;;;;;;;;;;;;;;;5.68;52.43;100101.97;4341733;32;33906;-66
2022/12/29 03:05:00;;;;;;;;;;;;;;;5.94;51.43;100098.06;4325237;33;35560;-66
2022/12/29 03:07:30;;;;;;;;;;;;;;;5.69;52.83;100097.50;4320938;33;31765;-69
2022/12/29 03:09:58;;;;;;;;;;;;;;;6.69;49.74;100103.94;4327620;33;32322;-67
2022/12/29 03:18:24;;;;;;;;;;;;;;;6.75;49.80;100096.50;4320878;33;34359;-66
2022/12/29 03:20:53;;;;;;;;;;;;;;;6.73;49.77;100095.72;4327389;33;34059;-68
2022/12/29 03:23:21;;;;;;;;;;;;;;;6.65;50.31;100097.94;4320549;33;34903;-66
2022/12/29 03:25:51;;;;;;;;;;;;;;;6.67;50.33;100089.84;4345386;32;34254;-65
2022/12/29 03:28:21;;;;;;;;;;;;;;;6.32;50.96;100073.94;4345662;32;31727;-65
2022/12/29 03:30:49;;;;;;;;;;;;;;;6.04;52.62;100078.03;4351240;32;33661;-67
2022/12/29 03:33:18;;;;;;;;;;;;;;;6.15;51.60;100079.28;4323640;33;33797;-68
2022/12/29 03:35:47;;;;;;;;;;;;;;;6.30;50.89;100087.34;4323708;32;34618;-68
2022/12/29 03:38:19;;;;;;;;;;;;;;;5.84;51.73;100084.34;4355838;32;33524;-69
2022/12/29 03:40:48;;;;;;;;;;;;;;;6.24;51.74;100090.31;4352528;32;34163;-69
2022/12/29 03:43:15;;;;;;;;;;;;;;;4.06;57.79;100081.06;4354281;32;34256;-70
2022/12/29 03:45:44;;;;;;;;;;;;;;;4.08;58.10;100073.06;4345695;32;34496;-70
2022/12/29 03:48:12;;;;;;;;;;;;;;;5.18;55.20;100068.09;4349497;32;32354;-71
2022/12/29 03:50:40;;;;;;;;;;;;;;;5.36;54.06;100072.53;4351886;32;33924;-71
2022/12/29 03:53:08;;;;;;;;;;;;;;;6.01;52.64;100066.72;4353563;32;33221;-71
2022/12/29 03:55:35;;;;;;;;;;;;;;;6.29;51.73;100077.66;4356369;32;34089;-72
2022/12/29 03:58:02;;;;;;;;;;;;;;;5.72;52.85;100082.28;4350134;32;33360;-71
2022/12/29 04:00:30;;;;;;;;;;;;;;;5.37;53.19;100068.94;4356274;32;32581;-72
2022/12/29 04:02:58;;;;;;;;;;;;;;;4.67;55.50;100083.69;4353872;32;35199;-71
2022/12/29 04:05:26;;;;;;;;;;;;;;;5.18;54.54;100072.53;4352735;32;33850;-71
2022/12/29 04:07:54;;;;;;;;;;;;;;;5.69;53.32;100084.22;4354042;32;34212;-69
2022/12/29 04:10:22;;;;;;;;;;;;;;;4.63;56.15;100084.75;4356207;32;34717;-69
2022/12/29 04:12:50;;;;;;;;;;;;;;;5.64;53.56;100079.12;4361067;32;33931;-69
2022/12/29 04:15:17;;;;;;;;;;;;;;;5.63;53.50;100073.91;4354436;32;34416;-68
2022/12/29 04:17:45;;;;;;;;;;;;;;;5.52;53.16;100074.41;4354971;32;31832;-69
2022/12/29 04:20:59;;;;;;;;;;;;;;;5.51;53.14;100076.22;4351854;32;32931;-68
2022/12/29 04:23:06;;;;;;;;;;;;;;;6.25;51.83;100075.22;4351216;32;33325;-69
2022/12/29 04:25:34;;;;;;;;;;;;;;;5.37;54.15;100066.28;4349524;32;35447;-69
2022/12/29 04:28:02;;;;;;;;;;;;;;;5.23;53.86;100083.78;4333240;32;32048;-68
2022/12/29 04:30:29;;;;;;;;;;;;;;;4.08;56.94;100083.69;4359890;32;34288;-68
2022/12/29 04:32:57;;;;;;;;;;;;;;;5.06;54.93;100088.09;4359870;32;34400;-70
2022/12/29 04:35:24;;;;;;;;;;;;;;;4.98;55.32;100094.69;4357617;32;32821;-69
2022/12/29 04:37:52;;;;;;;;;;;;;;;5.33;55.30;100075.31;4353100;32;32862;-68
2022/12/29 04:40:19;;;;;;;;;;;;;;;4.46;56.55;100087.28;4349457;32;32401;-68
2022/12/29 04:42:47;;;;;;;;;;;;;;;5.26;55.10;100079.19;4351182;32;35345;-71
2022/12/29 04:45:14;;;;;;;;;;;;;;;4.03;57.89;100081.19;4349087;32;33465;-69
2022/12/29 04:47:42;;;;;;;;;;;;;;;4.11;58.57;100081.75;4352129;32;33311;-72
2022/12/29 04:50:10;;;;;;;;;;;;;;;5.61;54.21;100073.97;4354721;32;35390;-69
2022/12/29 04:52:37;;;;;;;;;;;;;;;5.72;53.56;100076.12;4354631;32;33021;-71
2022/12/29 04:55:05;;;;;;;;;;;;;;;4.64;57.34;100077.66;4354253;32;33318;-70
2022/12/29 04:57:33;;;;;;;;;;;;;;;4.93;55.91;100072.81;4356023;32;32940;-68
2022/12/29 05:00:01;;;;;;;;;;;;;;;4.69;56.84;100075.69;4354106;32;34274;-69
2022/12/29 05:02:28;;;;;;;;;;;;;;;5.69;53.74;100076.28;4349779;32;34332;-69
2022/12/29 05:04:56;;;;;;;;;;;;;;;4.96;56.33;100072.69;4354828;32;34519;-68
2022/12/29 05:07:24;;;;;;;;;;;;;;;5.67;53.96;100071.00;4353074;32;33484;-68
2022/12/29 05:09:52;;;;;;;;;;;;;;;6.07;52.79;100075.22;4356267;32;33785;-68
2022/12/29 05:12:20;;;;;;;;;;;;;;;6.40;51.39;100066.44;4353300;32;34077;-71
2022/12/29 05:14:48;;;;;;;;;;;;;;;6.18;52.30;100064.03;4354622;32;32887;-71
2022/12/29 05:20:38;;;;;;;;;;;;;;;5.21;54.85;100075.91;4355248;32;34063;-69
2022/12/29 05:23:07;;;;;;;;;;;;;;;5.40;54.35;100073.25;4353652;32;34277;-70
2022/12/29 05:25:34;;;;;;;;;;;;;;;5.72;54.14;100074.31;4354219;32;34461;-70
2022/12/29 05:28:02;;;;;;;;;;;;;;;5.87;53.46;100075.31;4354668;32;32463;-69
2022/12/29 05:30:30;;;;;;;;;;;;;;;5.88;53.05;100073.56;4356050;32;34846;-68
2022/12/29 05:32:57;;;;;;;;;;;;;;;5.67;54.63;100070.16;4354440;32;33516;-70
2022/12/29 05:35:25;;;;;;;;;;;;;;;5.57;53.67;100069.75;4355164;32;35331;-69
2022/12/29 05:37:52;;;;;;;;;;;;;;;6.12;52.23;100069.66;4356891;32;33165;-68
2022/12/29 05:40:20;;;;;;;;;;;;;;;5.75;54.01;100066.19;4344623;32;33730;-69
2022/12/29 05:42:47;;;;;;;;;;;;;;;6.05;52.85;100066.47;4355865;32;33823;-70
2022/12/29 05:45:15;;;;;;;;;;;;;;;5.95;52.28;100062.56;4356185;32;34114;-71
2022/12/29 05:47:43;;;;;;;;;;;;;;;5.78;53.37;100063.38;4354159;32;33826;-69
2022/12/29 05:50:11;;;;;;;;;;;;;;;5.43;55.06;100064.28;4356631;32;33668;-70
2022/12/29 05:52:42;;;;;;;;;;;;;;;5.64;53.59;100057.87;4352548;32;34080;-69
2022/12/29 05:55:09;;;;;;;;;;;;;;;5.33;54.69;100051.44;4356546;32;35519;-67
2022/12/29 05:57:37;;;;;;;;;;;;;;;5.35;54.65;100038.94;4353189;32;33163;-69
2022/12/29 06:00:06;;;;;;;;;;;;;;;4.46;56.44;100044.00;4350639;32;33020;-68
2022/12/29 06:02:41;;;;;;;;;;;;;;;4.48;56.26;100044.81;4354629;32;34334;-70
2022/12/29 06:05:09;;;;;;;;;;;;;;;4.87;56.73;100042.12;4355647;32;35063;-73
2022/12/29 06:07:36;;;;;;;;;;;;;;;4.34;57.41;100054.25;4352266;32;35075;-71
2022/12/29 06:10:04;;;;;;;;;;;;;;;4.11;57.79;100046.44;4351062;32;32841;-69
2022/12/29 06:12:32;;;;;;;;;;;;;;;3.91;59.17;100045.50;4344791;32;35373;-77
2022/12/29 06:15:00;;;;;;;;;;;;;;;4.51;58.20;100055.28;4359331;32;34558;-71
2022/12/29 06:17:27;;;;;;;;;;;;;;;5.06;56.52;100058.03;4353911;32;33718;-69
2022/12/29 06:19:54;;;;;;;;;;;;;;;5.26;55.39;100046.47;4352853;32;34165;-73
2022/12/29 06:22:22;;;;;;;;;;;;;;;5.60;54.50;100043.03;4349256;32;32987;-69
2022/12/29 06:24:49;;;;;;;;;;;;;;;5.93;53.89;100042.31;4354433;32;34353;-69
2022/12/29 06:27:17;;;;;;;;;;;;;;;5.19;55.12;100055.69;4359241;32;33601;-72
2022/12/29 06:29:44;;;;;;;;;;;;;;;4.89;57.78;100058.84;4354838;32;34087;-73
2022/12/29 06:32:12;;;;;;;;;;;;;;;4.96;56.25;100067.37;4353872;32;34380;-73
2022/12/29 06:34:41;;;;;;;;;;;;;;;4.53;56.46;100075.50;4354652;32;35475;-68
2022/12/29 06:37:08;;;;;;;;;;;;;;;4.63;56.19;100068.00;4353857;32;34276;-71
2022/12/29 06:39:35;;;;;;;;;;;;;;;4.58;57.10;100070.84;4355679;32;32855;-70
2022/12/29 06:42:03;;;;;;;;;;;;;;;5.21;55.44;100067.94;4351469;32;33152;-70
2022/12/29 06:44:31;;;;;;;;;;;;;;;4.48;58.73;100066.03;4354278;32;33208;-69
2022/12/29 06:46:59;;;;;;;;;;;;;;;4.71;57.08;100076.44;4355062;32;34144;-70
2022/12/29 06:49:27;;;;;;;;;;;;;;;4.24;58.55;100063.53;4354775;32;34103;-69
2022/12/29 06:51:54;;;;;;;;;;;;;;;5.20;54.97;100076.84;4356597;32;34337;-68
2022/12/29 06:54:22;;;;;;;;;;;;;;;5.91;53.84;100074.25;4358687;32;34577;-68
2022/12/29 06:56:49;;;;;;;;;;;;;;;6.30;52.17;100087.34;4359396;32;33561;-70
2022/12/29 06:59:16;;;;;;;;;;;;;;;6.28;52.50;100086.53;4356093;32;32473;-71
2022/12/29 07:01:43;;;;;;;;;;;;;;;6.26;51.59;100085.78;4358857;32;34097;-68
2022/12/29 07:04:11;;;;;;;;;;;;;;;5.63;53.67;100085.38;4359532;32;33956;-71
2022/12/29 07:06:40;;;;;;;;;;;;;;;6.93;50.33;100091.13;4359650;32;34457;-69
2022/12/29 07:09:08;;;;;;;;;;;;;;;8.11;47.27;100090.63;4360453;32;33563;-70
2022/12/29 07:11:35;;;;;;;;;;;;;;;8.26;46.95;100082.69;4355372;32;34251;-70
2022/12/29 07:14:03;;;;;;;;;;;;;;;8.22;47.42;100089.13;4361054;32;35071;-70
2022/12/29 07:16:31;;;;;;;;;;;;;;;7.99;47.15;100087.81;4358507;32;33712;-69
2022/12/29 07:18:59;;;;;;;;;;;;;;;8.15;46.54;100081.50;4356890;32;32659;-69
2022/12/29 07:21:26;;;;;;;;;;;;;;;7.46;48.62;100090.81;4361020;32;34106;-68
2022/12/29 07:23:54;;;;;;;;;;;;;;;7.94;47.40;100082.78;4358347;32;35344;-68
2022/12/29 07:26:21;;;;;;;;;;;;;;;7.26;48.55;100092.91;4359948;32;34381;-68
2022/12/29 07:28:48;;;;;;;;;;;;;;;8.56;45.70;100082.66;4355694;32;35268;-70
2022/12/29 07:31:20;;;;;;;;;;;;;;;7.69;48.37;100081.50;4360116;32;34446;-70
2022/12/29 07:33:47;;;;;;;;;;;;;;;8.78;45.19;100085.72;4357245;32;34323;-70
2022/12/29 07:36:15;;;;;;;;;;;;;;;9.73;43.62;100079.66;4356458;32;34499;-68
2022/12/29 07:38:42;;;;;;;;;;;;;;;9.32;44.08;100077.00;4357920;32;34372;-71
2022/12/29 07:41:10;;;;;;;;;;;;;;;10.72;40.70;100077.41;4358760;32;35144;-67
2022/12/29 07:43:37;;;;;;;;;;;;;;;10.88;40.39;100078.97;4354287;32;33484;-71
2022/12/29 07:46:05;;;;;;;;;;;;;;;10.64;40.63;100078.91;4357871;32;34773;-70
2022/12/29 07:48:35;;;;;;;;;;;;;;;11.26;40.33;100080.75;4357746;32;32630;-71
2022/12/29 07:51:03;;;;;;;;;;;;;;;10.44;40.97;100082.97;4351250;32;32996;-69
2022/12/29 07:53:30;;;;;;;;;;;;;;;10.89;40.15;100081.56;4356150;32;32762;-68
2022/12/29 07:55:57;;;;;;;;;;;;;;;11.21;39.34;100081.09;4358394;32;33401;-69
2022/12/29 07:58:24;;;;;;;;;;;;;;;10.29;41.01;100084.00;4359361;32;35071;-68
2022/12/29 08:00:53;;;;;;;;;;;;;;;9.99;42.36;100079.75;4351792;32;34240;-69
2022/12/29 08:03:21;;;;;;;;;;;;;;;7.64;47.28;100093.38;4359421;32;34433;-68
2022/12/29 08:05:48;;;;;;;;;;;;;;;9.51;43.72;100080.19;4348221;32;32258;-69
2022/12/29 08:08:15;;;;;;;;;;;;;;;9.99;42.10;100080.59;4357155;32;34108;-68
2022/12/29 08:10:43;;;;;;;;;;;;;;;9.61;43.11;100084.94;4355949;32;33173;-68
2022/12/29 08:13:12;;;;;;;;;;;;;;;8.90;45.28;100086.78;4356734;32;34396;-70
2022/12/29 08:15:39;;;;;;;;;;;;;;;8.78;44.74;100082.19;4356913;32;32114;-69
2022/12/29 08:18:07;;;;;;;;;;;;;;;8.81;45.67;100090.88;4355581;32;34071;-71
2022/12/29 08:20:34;;;;;;;;;;;;;;;9.36;43.94;100078.50;4352611;32;34487;-68
2022/12/29 08:23:01;;;;;;;;;;;;;;;9.29;43.93;100078.06;4354069;32;34876;-69
2022/12/29 08:25:29;;;;;;;;;;;;;;;9.13;44.57;100077.31;4354377;32;33659;-69
2022/12/29 08:27:56;;;;;;;;;;;;;;;9.01;44.71;100070.06;4355351;32;33984;-68
2022/12/29 08:30:23;;;;;;;;;;;;;;;6.96;49.01;100075.84;4355508;32;35100;-68
2022/12/29 08:32:51;;;;;;;;;;;;;;;8.13;47.12;100071.88;4352325;32;34406;-68
2022/12/29 08:35:18;;;;;;;;;;;;;;;7.20;49.67;100070.13;4355627;32;33777;-71
2022/12/29 08:37:45;;;;;;;;;;;;;;;6.39;52.17;100074.50;4354653;32;34006;-71
2022/12/29 08:40:13;;;;;;;;;;;;;;;6.10;52.47;100068.91;4351446;32;34498;-67
2022/12/29 08:42:41;;;;;;;;;;;;;;;7.06;50.24;100065.53;4356389;32;34527;-67
2022/12/29 08:45:08;;;;;;;;;;;;;;;7.23;49.67;100065.50;4352578;32;34627;-70
2022/12/29 08:47:36;;;;;;;;;;;;;;;5.49;55.02;100062.19;4354631;32;35601;-67
2022/12/29 08:50:03;;;;;;;;;;;;;;;6.78;51.39;100063.56;4356000;32;35041;-68
2022/12/29 08:52:30;;;;;;;;;;;;;;;6.56;52.02;100070.97;4353879;32;34930;-70
2022/12/29 08:54:58;;;;;;;;;;;;;;;6.61;51.86;100079.53;4340065;32;33037;-69
2022/12/29 08:57:25;;;;;;;;;;;;;;;6.76;51.74;100074.25;4354483;32;34598;-68
2022/12/29 08:59:53;;;;;;;;;;;;;;;6.54;53.18;100077.19;4355858;32;34279;-67
2022/12/29 09:02:20;;;;;;;;;;;;;;;7.04;51.51;100067.47;4350329;32;34517;-69
2022/12/29 09:04:51;;;;;;;;;;;;;;;7.82;49.11;100054.16;4348287;32;32796;-69
2022/12/29 09:07:18;;;;;;;;;;;;;;;7.52;50.79;100059.47;4346649;32;35040;-68
2022/12/29 09:09:45;;;;;;;;;;;;;;;8.22;49.27;100046.47;4351240;32;34125;-68
2022/12/29 09:12:13;;;;;;;;;;;;;;;9.14;45.57;100046.12;4350713;32;35250;-68
2022/12/29 09:14:42;;;;;;;;;;;;;;;9.36;45.05;100037.59;4353134;32;32306;-67
2022/12/29 09:19:55;;;;;;;;;;;;;;;8.36;46.54;100044.69;4356063;32;35271;-68
2022/12/29 09:22:23;;;;;;;;;;;;;;;8.48;46.72;100047.59;4354079;32;35208;-68
2022/12/29 09:24:50;;;;;;;;;;;;;;;8.62;45.91;100039.59;4356264;32;33407;-68
2022/12/29 09:27:17;;;;;;;;;;;;;;;8.44;46.52;100036.22;4353149;32;34101;-67
2022/12/29 09:29:45;;;;;;;;;;;;;;;8.36;47.21;100039.34;4353867;32;35013;-68
2022/12/29 09:32:12;;;;;;;;;;;;;;;6.95;50.07;100033.34;4347958;32;34509;-67
2022/12/29 09:34:45;;;;;;;;;;;;;;;5.06;55.41;100039.47;4349259;32;33091;-67
2022/12/29 09:37:12;;;;;;;;;;;;;;;5.10;56.15;100031.31;4351187;32;33661;-70
2022/12/29 09:39:40;;;;;;;;;;;;;;;6.06;53.72;100019.50;4352044;32;32644;-67
2022/12/29 09:42:13;;;;;;;;;;;;;;;5.89;55.14;100020.34;4350379;32;34194;-70
2022/12/29 09:44:40;;;;;;;;;;;;;;;6.66;53.02;100019.00;4354682;32;34084;-69
2022/12/29 09:47:09;;;;;;;;;;;;;;;7.71;50.61;100014.84;4354305;32;33716;-69
2022/12/29 09:49:42;;;;;;;;;;;;;;;9.12;46.24;100007.97;4350724;32;33675;-68
2022/12/29 09:52:13;;;;;;;;;;;;;;;9.02;45.99;99997.91;4338612;32;34716;-67
2022/12/29 09:54:43;;;;;;;;;;;;;;;7.84;49.04;100010.50;4350098;32;33418;-68
2022/12/29 09:57:20;;;;;;;;;;;;;;;8.69;47.32;100003.56;4352473;32;33876;-68
2022/12/29 09:59:48;;;;;;;;;;;;;;;8.16;48.18;100008.56;4350591;32;33981;-68
2022/12/29 10:02:30;;;;;;;;;;;;;;;9.18;45.82;99999.56;4348130;32;34404;-68
2022/12/29 10:04:57;;;;;;;;;;;;;;;9.07;46.87;100003.78;4353834;32;33461;-68
2022/12/29 10:07:30;;;;;;;;;;;;;;;9.80;44.33;100007.94;4357478;32;35023;-68
2022/12/29 10:10:00;;;;;;;;;;;;;;;10.77;42.38;100002.09;4343704;32;34470;-69
2022/12/29 10:12:37;;;;;;;;;;;;;;;9.99;43.49;99991.50;4358955;32;35100;-69
2022/12/29 10:15:10;;;;;;;;;;;;;;;10.92;41.15;99992.13;4359523;32;32579;-68
2022/12/29 10:17:59;;;;;;;;;;;;;;;11.17;40.87;99993.84;4342572;32;33764;-67
2022/12/29 10:20:35;;;;;;;;;;;;;;;11.67;39.84;99991.94;4344067;32;33877;-69
2022/12/29 10:23:21;;;;;;;;;;;;;;;12.32;37.92;99977.97;4343649;32;33266;-68
2022/12/29 10:25:49;;;;;;;;;;;;;;;13.06;37.27;99980.16;4356421;32;32240;-69
2022/12/29 10:28:20;;;;;;;;;;;;;;;13.94;35.77;99965.72;4345547;32;33941;-69
2022/12/29 10:30:48;;;;;;;;;;;;;;;14.19;33.75;99973.38;4356989;32;34093;-70
2022/12/29 10:33:18;;;;;;;;;;;;;;;13.57;35.66;99967.97;4344627;32;34305;-68
2022/12/29 10:35:45;;;;;;;;;;;;;;;14.68;33.82;99965.59;4346321;32;33191;-71
2022/12/29 10:38:22;;;;;;;;;;;;;;;15.41;32.67;99963.50;4337883;32;34645;-71
2022/12/29 10:40:56;;;;;;;;;;;;;;;16.56;30.51;99974.31;4345337;32;34115;-70
2022/12/29 10:43:25;;;;;;;;;;;;;;;15.58;31.27;99960.09;4350603;32;34274;-69
2022/12/29 10:45:57;;;;;;;;;;;;;;;14.58;33.13;99964.69;4351897;32;33323;-67
2022/12/29 10:48:27;;;;;;;;;;;;;;;11.51;38.30;99968.09;4350315;32;34131;-67
2022/12/29 10:50:58;;;;;;;;;;;;;;;11.16;39.72;99963.53;4335840;32;34442;-68
2022/12/29 10:53:44;;;;;;;;;;;;;;;10.79;41.13;99956.50;4354308;32;34133;-69
2022/12/29 10:56:16;;;;;;;;;;;;;;;11.87;38.30;99959.09;4352906;32;32501;-68
2022/12/29 10:58:44;;;;;;;;;;;;;;;12.93;36.77;99950.75;4342756;32;32637;-68
2022/12/29 11:01:15;;;;;;;;;;;;;;;12.35;38.00;99948.22;4341644;32;33089;-69
2022/12/29 11:03:48;;;;;;;;;;;;;;;12.58;37.66;99948.22;4353364;32;33189;-68
2022/12/29 11:06:24;;;;;;;;;;;;;;;13.48;35.67;99948.94;4350290;32;33922;-68
2022/12/29 11:09:11;;;;;;;;;;;;;;;13.45;35.78;99953.69;4357743;32;34168;-69
2022/12/29 11:11:39;;;;;;;;;;;;;;;13.50;35.29;99955.03;4354002;32;33284;-69
2022/12/29 11:14:13;;;;;;;;;;;;;;;13.36;36.67;99954.47;4358521;32;34218;-70
2022/12/29 11:16:41;;;;;;;;;;;;;;;13.34;36.74;99953.75;4355879;32;30907;-69
2022/12/29 11:19:22;;;;;;;;;;;;;;;14.26;34.29;99948.63;4356953;32;34206;-69
2022/12/29 11:21:50;;;;;;;;;;;;;;;13.20;36.25;99941.44;4354012;32;35508;-70
2022/12/29 11:24:25;;;;;;;;;;;;;;;13.67;35.88;99945.53;4342179;32;35187;-69
2022/12/29 11:26:57;;;;;;;;;;;;;;;12.32;37.62;99937.72;4351853;32;33269;-70
2022/12/29 11:29:25;;;;;;;;;;;;;;;12.18;38.47;99934.44;4353200;32;33927;-68
2022/12/29 11:31:54;;;;;;;;;;;;;;;12.00;38.54;99934.88;4355591;32;33905;-69
2022/12/29 11:34:26;;;;;;;;;;;;;;;11.93;38.71;99927.44;4349461;32;34121;-69
2022/12/29 11:36:57;;;;;;;;;;;;;;;11.31;40.82;99916.00;4352490;32;35414;-69
2022/12/29 11:39:24;;;;;;;;;;;;;;;11.71;39.81;99929.03;4353178;32;32668;-68
2022/12/29 11:41:52;;;;;;;;;;;;;;;11.68;40.07;99931.97;4361134;32;32760;-68
2022/12/29 11:44:20;;;;;;;;;;;;;;;11.48;39.71;99920.06;4361164;32;33974;-69
2022/12/29 11:46:48;;;;;;;;;;;;;;;10.29;42.36;99912.78;4360968;32;33760;-70
2022/12/29 11:49:25;;;;;;;;;;;;;;;9.63;44.20;99909.31;4358869;32;33802;-68
2022/12/29 11:51:55;;;;;;;;;;;;;;;9.37;45.27;99916.41;4358780;32;34340;-69
2022/12/29 11:54:32;;;;;;;;;;;;;;;8.72;46.81;99923.31;4348957;32;34438;-68
2022/12/29 11:57:08;;;;;;;;;;;;;;;8.74;47.34;99931.22;4360212;32;33634;-68
2022/12/29 11:59:37;;;;;;;;;;;;;;;9.14;46.13;99933.97;4360754;32;33983;-69
2022/12/29 12:02:24;;;;;;;;;;;;;;;8.55;47.55;99932.41;4347836;32;34565;-70
2022/12/29 12:04:54;;;;;;;;;;;;;;;7.31;51.25;99929.25;4355815;32;34892;-70
2022/12/29 12:07:23;;;;;;;;;;;;;;;7.91;50.05;99925.69;4358116;32;33656;-70
2022/12/29 12:09:51;;;;;;;;;;;;;;;7.74;50.17;99926.72;4345842;32;34102;-70
2022/12/29 12:12:27;;;;;;;;;;;;;;;8.23;49.13;99921.06;4360249;32;34317;-69
2022/12/29 12:14:59;;;;;;;;;;;;;;;8.15;49.76;99918.88;4344936;32;35364;-70
2022/12/29 12:17:35;;;;;;;;;;;;;;;8.02;50.41;99909.91;4339996;32;33442;-68
2022/12/29 12:20:42;;;;;;;;;;;;;;;8.17;49.51;99914.28;4352538;32;34089;-69
2022/12/29 12:23:25;;;;;;;;;;;;;;;7.91;50.45;99904.38;4315143;33;34190;-73
2022/12/29 12:26:09;;;;;;;;;;;;;;;7.37;51.44;99912.91;4309824;33;34120;-72
2022/12/29 12:28:40;;;;;;;;;;;;;;;7.41;51.67;99902.94;4331872;32;33484;-70
2022/12/29 12:31:33;;;;;;;;;;;;;;;7.06;53.02;99900.53;4357880;32;32685;-69
2022/12/29 12:34:02;;;;;;;;;;;;;;;6.99;53.01;99885.88;4354324;32;32747;-70
2022/12/29 12:36:33;;;;;;;;;;;;;;;6.48;54.46;99882.56;4343603;32;35462;-69
2022/12/29 12:39:03;;;;;;;;;;;;;;;6.29;55.13;99885.38;4343393;32;32413;-71
2022/12/29 12:41:30;;;;;;;;;;;;;;;7.37;52.98;99875.62;4359443;32;33632;-72
2022/12/29 12:44:11;;;;;;;;;;;;;;;6.72;54.43;99883.00;4358662;32;33609;-71
2022/12/29 12:46:39;;;;;;;;;;;;;;;7.49;52.42;99876.72;4357309;32;34737;-73
2022/12/29 12:49:12;;;;;;;;;;;;;;;6.49;54.92;99871.00;4358986;32;33695;-71
2022/12/29 12:52:01;;;;;;;;;;;;;;;6.82;55.00;99870.87;4360987;32;35242;-69
2022/12/29 12:54:44;;;;;;;;;;;;;;;7.90;51.58;99878.69;4348393;32;33807;-70
2022/12/29 12:57:11;;;;;;;;;;;;;;;7.11;53.49;99879.84;4358850;32;32542;-69
2022/12/29 12:59:58;;;;;;;;;;;;;;;8.07;51.99;99883.81;4356500;32;33220;-70
2022/12/29 13:02:49;;;;;;;;;;;;;;;7.51;52.78;99885.47;4358791;32;35105;-69
2022/12/29 13:05:19;;;;;;;;;;;;;;;7.59;51.95;99883.22;4346909;32;34316;-71
2022/12/29 13:08:11;;;;;;;;;;;;;;;7.87;51.72;99878.87;4353261;32;35132;-69
2022/12/29 13:10:42;;;;;;;;;;;;;;;7.93;51.23;99879.34;4359446;32;32573;-69
2022/12/29 13:13:36;;;;;;;;;;;;;;;8.00;51.53;99881.66;4359527;32;35173;-70
2022/12/29 13:16:11;;;;;;;;;;;;;;;8.62;50.09;99882.16;4355060;32;36484;-71
2022/12/29 13:19:01;;;;;;;;;;;;;;;8.97;49.18;99885.22;4358554;32;34201;-71
2022/12/29 13:21:34;;;;;;;;;;;;;;;7.66;52.28;99889.88;4358507;32;33521;-68
2022/12/29 13:24:04;;;;;;;;;;;;;;;7.69;52.74;99884.38;4353681;32;33867;-70
2022/12/29 13:26:42;;;;;;;;;;;;;;;8.24;50.94;99885.44;4356879;32;35263;-71
2022/12/29 13:29:16;;;;;;;;;;;;;;;8.36;50.52;99889.13;4348225;32;33372;-74
2022/12/29 13:31:49;;;;;;;;;;;;;;;8.21;51.06;99901.63;4359293;32;33386;-67
2022/12/29 13:34:36;;;;;;;;;;;;;;;8.22;51.49;99890.03;4340541;32;34961;-75
2022/12/29 13:37:04;;;;;;;;;;;;;;;7.99;51.91;99887.91;4352063;32;34699;-71
2022/12/29 13:39:32;;;;;;;;;;;;;;;8.36;51.13;99890.00;4347242;32;34626;-72
2022/12/29 13:42:00;;;;;;;;;;;;;;;8.51;50.84;99893.53;4356274;32;34408;-70
2022/12/29 13:44:38;;;;;;;;;;;;;;;8.37;51.05;99885.50;4341677;32;32794;-70